Time;durP1;ratioP1;P1;durP2;ratioP2;P2;SDS_P1;SDS_P2;PMS_P1;PMS_P2;Temp;Humidity;BMP_temperature;BMP_pressure;BME280_temperature;BME280_humidity;BME280_pressure;Samples;Min_cycle;Max_cycle;Signal;HPM_P1;HPM_P2
2022/12/05 00:00:11;;;;;;;65.30;32.57;;;2.40;99.90;;;;;;5049426;28;20519;-51
2022/12/05 00:02:38;;;;;;;59.67;34.30;;;2.50;99.90;;;;;;5049181;28;20462;-51
2022/12/05 00:05:05;;;;;;;69.30;34.60;;;2.40;99.90;;;;;;5047434;28;20508;-51
2022/12/05 00:07:32;;;;;;;63.00;32.37;;;2.50;99.90;;;;;;5045893;28;20457;-51
2022/12/05 00:09:58;;;;;;;60.83;34.13;;;2.50;99.90;;;;;;5049773;28;20482;-51
2022/12/05 00:12:26;;;;;;;71.87;34.97;;;2.50;99.90;;;;;;5046251;28;20462;-52
2022/12/05 00:14:53;;;;;;;57.73;31.87;;;2.50;99.90;;;;;;5044171;28;20466;-52
2022/12/05 00:17:20;;;;;;;61.47;33.53;;;2.50;99.90;;;;;;5049367;28;20488;-52
2022/12/05 00:19:46;;;;;;;63.63;34.07;;;2.50;99.90;;;;;;5049390;28;21043;-52
2022/12/05 00:22:13;;;;;;;61.23;34.10;;;2.50;99.90;;;;;;5052454;28;20469;-52
2022/12/05 00:24:40;;;;;;;59.20;34.27;;;2.50;99.90;;;;;;5053907;28;20465;-52
2022/12/05 00:27:06;;;;;;;68.73;33.00;;;2.50;99.90;;;;;;5046792;28;20463;-52
2022/12/05 00:29:34;;;;;;;61.23;35.80;;;2.50;99.90;;;;;;5052030;28;20469;-52
2022/12/05 00:32:01;;;;;;;58.40;34.30;;;2.60;99.90;;;;;;5051791;28;20477;-52
2022/12/05 00:34:27;;;;;;;64.07;33.20;;;2.60;99.90;;;;;;5054515;28;20519;-52
2022/12/05 00:36:54;;;;;;;63.43;33.90;;;2.60;99.90;;;;;;5052801;28;21251;-52
2022/12/05 00:39:21;;;;;;;62.97;33.67;;;2.50;99.90;;;;;;5052914;28;20489;-51
2022/12/05 00:41:47;;;;;;;73.80;36.83;;;2.50;99.90;;;;;;5046443;28;20478;-51
2022/12/05 00:44:14;;;;;;;64.53;34.50;;;2.50;99.90;;;;;;5045622;28;20513;-50
2022/12/05 00:46:42;;;;;;;66.37;33.60;;;2.50;99.90;;;;;;5034551;28;20500;-51
2022/12/05 00:49:10;;;;;;;71.63;35.10;;;2.50;99.90;;;;;;5047549;28;20458;-51
2022/12/05 00:51:41;;;;;;;64.40;34.70;;;2.60;99.90;;;;;;5042290;28;20490;-51
2022/12/05 00:54:10;;;;;;;73.10;34.43;;;2.60;99.90;;;;;;5047874;28;20453;-51
2022/12/05 00:56:37;;;;;;;65.77;34.40;;;2.60;99.90;;;;;;5050053;28;20462;-51
2022/12/05 00:59:05;;;;;;;58.43;31.53;;;2.60;99.90;;;;;;5051677;28;20511;-51
2022/12/05 01:01:33;;;;;;;64.87;35.10;;;2.60;99.90;;;;;;5046134;28;20520;-51
2022/12/05 01:04:04;;;;;;;65.37;35.30;;;2.60;99.90;;;;;;5051579;28;20511;-51
2022/12/05 01:06:31;;;;;;;61.80;34.00;;;2.60;99.90;;;;;;5042666;28;20463;-52
2022/12/05 01:08:58;;;;;;;62.70;35.67;;;2.60;99.90;;;;;;5043498;28;20503;-51
2022/12/05 01:11:26;;;;;;;65.40;32.90;;;2.60;99.90;;;;;;5053468;28;20485;-51
2022/12/05 01:13:53;;;;;;;64.43;33.57;;;2.60;99.90;;;;;;5052377;28;20462;-51
2022/12/05 01:16:23;;;;;;;67.47;34.93;;;2.60;99.90;;;;;;5053679;28;20446;-52
2022/12/05 01:18:50;;;;;;;64.47;35.37;;;2.60;99.90;;;;;;5051326;28;20457;-51
2022/12/05 01:21:18;;;;;;;66.17;34.40;;;2.60;99.90;;;;;;5043040;28;20615;-51
2022/12/05 01:23:45;;;;;;;67.30;35.13;;;2.60;99.90;;;;;;5051658;28;20458;-51
2022/12/05 01:26:15;;;;;;;58.90;33.17;;;2.60;99.90;;;;;;5063023;28;21012;-51
2022/12/05 01:28:42;;;;;;;73.57;35.37;;;2.60;99.90;;;;;;5053448;28;20512;-51
2022/12/05 01:31:16;;;;;;;66.13;34.70;;;2.60;99.90;;;;;;5051043;28;20547;-51
2022/12/05 01:33:43;;;;;;;67.90;34.60;;;2.60;99.90;;;;;;5049637;28;20873;-52
2022/12/05 01:36:11;;;;;;;66.40;34.23;;;2.60;99.90;;;;;;5047000;28;20473;-51
2022/12/05 01:38:40;;;;;;;73.43;35.87;;;2.60;99.90;;;;;;5042008;28;21028;-51
2022/12/05 01:41:09;;;;;;;61.83;33.10;;;2.60;99.90;;;;;;5048570;28;20478;-51
2022/12/05 01:43:57;;;;;;;64.77;34.70;;;2.60;99.90;;;;;;5052228;28;20458;-51
2022/12/05 01:46:24;;;;;;;66.93;35.47;;;2.60;99.90;;;;;;5049169;28;20461;-52
2022/12/05 01:48:53;;;;;;;61.77;33.53;;;2.60;99.90;;;;;;5052169;28;20466;-51
2022/12/05 01:51:20;;;;;;;64.23;35.30;;;2.70;99.90;;;;;;5046180;28;20547;-51
2022/12/05 01:53:48;;;;;;;67.83;35.17;;;2.60;99.90;;;;;;5046837;28;20527;-51
2022/12/05 01:56:14;;;;;;;59.03;33.60;;;2.70;99.90;;;;;;5037915;28;20462;-52
2022/12/05 01:58:43;;;;;;;64.40;33.77;;;2.70;99.90;;;;;;5045240;28;20454;-51
2022/12/05 02:01:12;;;;;;;57.57;32.43;;;2.60;99.90;;;;;;5063714;28;20531;-51
2022/12/05 02:03:40;;;;;;;63.90;34.07;;;2.60;99.90;;;;;;5052554;28;20919;-51
2022/12/05 02:06:07;;;;;;;61.43;33.53;;;2.60;99.90;;;;;;5045490;28;20462;-51
2022/12/05 02:08:34;;;;;;;63.90;35.47;;;2.60;99.90;;;;;;5043267;28;21030;-51
2022/12/05 02:11:02;;;;;;;56.17;33.33;;;2.60;99.90;;;;;;5033666;28;20537;-52
2022/12/05 02:13:40;;;;;;;67.10;34.60;;;2.70;99.90;;;;;;5049793;28;20958;-51
2022/12/05 02:16:18;;;;;;;63.50;33.67;;;2.60;99.90;;;;;;5047023;28;20512;-52
2022/12/05 02:18:57;;;;;;;66.40;37.10;;;2.60;99.90;;;;;;5052079;28;20515;-51
2022/12/05 02:21:57;;;;;;;64.87;35.10;;;2.70;99.90;;;;;;5048448;28;20532;-52
2022/12/05 02:24:50;;;;;;;65.80;35.40;;;2.70;99.90;;;;;;5039271;28;20458;-52
2022/12/05 02:27:37;;;;;;;66.67;35.63;;;2.70;99.90;;;;;;5038341;28;20517;-51
2022/12/05 02:30:11;;;;;;;63.03;33.97;;;2.70;99.90;;;;;;5034777;28;20481;-50
2022/12/05 02:32:52;;;;;;;58.73;34.37;;;2.70;99.90;;;;;;5045991;28;21101;-51
2022/12/05 02:35:30;;;;;;;62.93;34.97;;;2.70;99.90;;;;;;5045335;28;20956;-51
2022/12/05 02:38:08;;;;;;;60.50;34.17;;;2.70;99.90;;;;;;5049794;28;20536;-51
2022/12/05 02:40:43;;;;;;;68.67;32.40;;;2.70;99.90;;;;;;5039257;28;20478;-52
2022/12/05 02:43:14;;;;;;;65.27;35.90;;;2.70;99.90;;;;;;5046530;28;20967;-51
2022/12/05 02:45:45;;;;;;;55.17;33.90;;;2.70;99.90;;;;;;5039685;28;20453;-51
2022/12/05 02:48:14;;;;;;;56.23;33.60;;;2.70;99.90;;;;;;5049198;28;20940;-51
2022/12/05 02:50:43;;;;;;;61.50;34.07;;;2.70;99.90;;;;;;5043885;28;21107;-51
2022/12/05 02:53:12;;;;;;;59.37;33.60;;;2.70;99.90;;;;;;5043659;28;20458;-52
2022/12/05 02:55:41;;;;;;;58.20;34.37;;;2.70;99.90;;;;;;5040139;28;21010;-51
2022/12/05 02:58:13;;;;;;;65.53;31.67;;;2.70;99.90;;;;;;5045765;28;20453;-52
2022/12/05 03:00:42;;;;;;;62.23;33.93;;;2.70;99.90;;;;;;5038804;28;21007;-52
2022/12/05 03:03:17;;;;;;;65.70;35.47;;;2.70;99.90;;;;;;5053831;28;21130;-52
2022/12/05 03:05:51;;;;;;;55.33;33.80;;;2.70;99.90;;;;;;5046260;28;21884;-52
2022/12/05 03:08:21;;;;;;;62.10;34.07;;;2.70;99.90;;;;;;5048998;28;20504;-52
2022/12/05 03:10:51;;;;;;;59.93;35.70;;;2.70;99.90;;;;;;5033797;28;20540;-51
2022/12/05 03:13:21;;;;;;;63.50;33.23;;;2.70;99.90;;;;;;5047406;28;21022;-52
2022/12/05 03:15:50;;;;;;;55.93;33.33;;;2.70;99.90;;;;;;5049678;28;20516;-51
2022/12/05 03:18:24;;;;;;;59.13;33.90;;;2.70;99.90;;;;;;5043742;28;21047;-51
2022/12/05 03:20:54;;;;;;;53.10;31.93;;;2.70;99.90;;;;;;5045007;28;20589;-51
2022/12/05 03:23:25;;;;;;;60.50;33.80;;;2.70;99.90;;;;;;5050539;28;20500;-51
2022/12/05 03:26:00;;;;;;;54.23;30.70;;;2.70;99.90;;;;;;5043273;28;20458;-51
2022/12/05 03:28:33;;;;;;;52.37;31.77;;;2.70;99.90;;;;;;5051252;28;20499;-52
2022/12/05 03:31:04;;;;;;;48.33;29.87;;;2.60;99.90;;;;;;5050275;28;20482;-52
2022/12/05 03:33:40;;;;;;;50.23;29.47;;;2.70;99.90;;;;;;5044526;28;20873;-51
2022/12/05 03:36:14;;;;;;;53.87;30.67;;;2.70;99.90;;;;;;5040558;28;20476;-51
2022/12/05 03:38:48;;;;;;;45.70;27.10;;;2.70;99.90;;;;;;5046676;28;20468;-51
2022/12/05 03:41:22;;;;;;;48.37;29.07;;;2.70;99.90;;;;;;5043428;28;20516;-52
2022/12/05 03:43:56;;;;;;;51.00;28.67;;;2.70;99.90;;;;;;5051341;28;20473;-52
2022/12/05 03:46:28;;;;;;;47.57;27.20;;;2.70;99.90;;;;;;5060116;28;20488;-52
2022/12/05 03:49:00;;;;;;;49.23;28.40;;;2.70;99.90;;;;;;5050456;28;20488;-51
2022/12/05 03:51:33;;;;;;;49.77;27.37;;;2.70;99.90;;;;;;5048696;28;20486;-52
2022/12/05 03:54:03;;;;;;;40.83;24.03;;;2.70;99.90;;;;;;5051676;28;20430;-52
2022/12/05 03:56:34;;;;;;;39.87;24.73;;;2.70;99.90;;;;;;5046623;28;20462;-52
2022/12/05 03:59:09;;;;;;;42.80;26.30;;;2.70;99.90;;;;;;5044489;28;20474;-52
2022/12/05 04:01:38;;;;;;;44.63;26.30;;;2.60;99.90;;;;;;5049487;28;20473;-51
2022/12/05 04:04:10;;;;;;;37.80;24.30;;;2.70;99.90;;;;;;5051575;28;20876;-51
2022/12/05 04:06:39;;;;;;;36.03;23.30;;;2.70;99.90;;;;;;5046035;28;20951;-52
2022/12/05 04:09:10;;;;;;;42.10;23.40;;;2.70;99.90;;;;;;5051302;28;20859;-52
2022/12/05 04:11:40;;;;;;;34.40;21.97;;;2.70;99.90;;;;;;5045431;28;20535;-51
2022/12/05 04:14:11;;;;;;;36.73;23.00;;;2.70;99.90;;;;;;5045320;28;20495;-51
2022/12/05 04:21:36;;;;;;;36.10;23.20;;;2.70;99.90;;;;;;5049554;28;20926;-51
2022/12/05 04:22:18;;;;;;;37.20;21.50;;;2.60;99.90;;;;;;5043553;28;20525;-52
2022/12/05 04:27:37;;;;;;;37.63;21.17;;;2.70;99.90;;;;;;5047565;28;20986;-52
2022/12/05 04:30:07;;;;;;;36.27;19.80;;;2.70;99.90;;;;;;5048051;28;21021;-51
2022/12/05 04:32:39;;;;;;;33.63;20.33;;;2.60;99.90;;;;;;5040928;28;20481;-52
2022/12/05 04:35:13;;;;;;;34.27;20.70;;;2.60;99.90;;;;;;5056697;28;21040;-51
2022/12/05 04:37:44;;;;;;;32.63;19.53;;;2.60;99.90;;;;;;5043568;28;20454;-52
2022/12/05 04:40:18;;;;;;;32.20;19.93;;;2.70;99.90;;;;;;5049384;28;20882;-51
2022/12/05 04:42:47;;;;;;;29.30;19.43;;;2.70;99.90;;;;;;5041987;28;20455;-51
2022/12/05 04:45:16;;;;;;;34.30;19.37;;;2.70;99.90;;;;;;5043396;28;20455;-51
2022/12/05 04:47:46;;;;;;;29.73;18.60;;;2.70;99.90;;;;;;5040819;28;20890;-51
2022/12/05 04:50:17;;;;;;;31.90;18.80;;;2.60;99.90;;;;;;5057295;28;20535;-52
2022/12/05 04:52:48;;;;;;;31.03;20.30;;;2.60;99.90;;;;;;5053956;28;20485;-52
2022/12/05 04:55:24;;;;;;;29.80;18.23;;;2.60;99.90;;;;;;5053928;28;20967;-52
2022/12/05 04:57:57;;;;;;;29.53;19.17;;;2.60;99.90;;;;;;5046446;28;20467;-52
2022/12/05 05:00:25;;;;;;;25.33;16.43;;;2.70;99.90;;;;;;5042197;28;21055;-51
2022/12/05 05:02:57;;;;;;;25.17;17.13;;;2.60;99.90;;;;;;5049183;28;20462;-51
2022/12/05 05:05:26;;;;;;;29.90;17.13;;;2.60;99.90;;;;;;5052606;28;20902;-51
2022/12/05 05:07:54;;;;;;;26.83;16.40;;;2.60;99.90;;;;;;5052706;28;20468;-52
2022/12/05 05:10:26;;;;;;;25.33;15.87;;;2.60;99.90;;;;;;5051545;28;20478;-52
2022/12/05 05:12:53;;;;;;;24.07;15.73;;;2.60;99.90;;;;;;5050177;28;20519;-52
2022/12/05 05:15:20;;;;;;;27.43;17.80;;;2.60;99.90;;;;;;5044732;28;20466;-52
2022/12/05 05:17:46;;;;;;;22.40;15.33;;;2.60;99.90;;;;;;5045755;28;20523;-51
2022/12/05 05:20:26;;;;;;;25.73;16.60;;;2.60;99.90;;;;;;5042179;28;20486;-51
2022/12/05 05:22:54;;;;;;;25.00;16.13;;;2.60;99.90;;;;;;5068415;22;20557;-53
2022/12/05 05:25:22;;;;;;;23.80;15.97;;;2.60;99.90;;;;;;5066663;28;20461;-55
2022/12/05 05:27:50;;;;;;;25.30;15.97;;;2.60;99.90;;;;;;5067448;28;20519;-53
2022/12/05 05:30:18;;;;;;;25.50;15.63;;;2.60;99.90;;;;;;5060082;28;20993;-55
2022/12/05 05:32:44;;;;;;;28.20;17.53;;;2.60;99.90;;;;;;5068297;28;20977;-55
2022/12/05 05:35:12;;;;;;;26.53;16.10;;;2.60;99.90;;;;;;5069364;28;20457;-54
2022/12/05 05:37:38;;;;;;;23.80;15.10;;;2.60;99.90;;;;;;5069086;28;20488;-53
2022/12/05 05:40:08;;;;;;;22.83;14.60;;;2.60;99.90;;;;;;5066750;28;20511;-54
2022/12/05 05:42:35;;;;;;;24.77;15.57;;;2.60;99.90;;;;;;5065827;28;20560;-53
2022/12/05 05:45:02;;;;;;;25.60;16.30;;;2.60;99.90;;;;;;5058533;28;20461;-54
2022/12/05 05:47:29;;;;;;;21.63;15.10;;;2.60;99.90;;;;;;5061241;28;20566;-55
2022/12/05 05:49:55;;;;;;;24.17;16.17;;;2.60;99.90;;;;;;5059531;28;20511;-53
2022/12/05 05:52:22;;;;;;;22.33;12.80;;;2.60;99.90;;;;;;5064220;28;20481;-54
2022/12/05 05:54:48;;;;;;;21.23;13.70;;;2.60;99.90;;;;;;5064384;28;20460;-54
2022/12/05 05:57:16;;;;;;;16.90;13.13;;;2.60;99.90;;;;;;5065111;28;20469;-54
2022/12/05 05:59:43;;;;;;;22.10;13.33;;;2.60;99.90;;;;;;5061374;28;20460;-54
2022/12/05 06:02:09;;;;;;;19.47;13.27;;;2.60;99.90;;;;;;5064810;28;20468;-55
2022/12/05 06:04:36;;;;;;;17.70;12.17;;;2.60;99.90;;;;;;5062818;28;20485;-54
2022/12/05 06:07:02;;;;;;;20.67;14.27;;;2.60;99.90;;;;;;5062548;28;20873;-54
2022/12/05 06:09:29;;;;;;;17.20;12.00;;;2.60;99.90;;;;;;5063948;28;20457;-54
2022/12/05 06:11:56;;;;;;;19.40;13.00;;;2.60;99.90;;;;;;5063385;28;20491;-54
2022/12/05 06:14:24;;;;;;;19.03;12.30;;;2.60;99.90;;;;;;5058055;28;20547;-54
2022/12/05 06:16:50;;;;;;;15.37;11.80;;;2.60;99.90;;;;;;5061156;28;20454;-55
2022/12/05 06:19:17;;;;;;;18.67;12.63;;;2.60;99.90;;;;;;5065740;28;20457;-56
2022/12/05 06:21:43;;;;;;;18.10;12.13;;;2.70;99.90;;;;;;5066142;28;20547;-54
2022/12/05 06:24:10;;;;;;;19.20;12.23;;;2.60;99.90;;;;;;5070713;28;20460;-54
2022/12/05 06:26:37;;;;;;;19.43;12.27;;;2.60;99.90;;;;;;5069696;28;20457;-54
2022/12/05 06:29:03;;;;;;;13.03;11.00;;;2.60;99.90;;;;;;5071257;28;20458;-54
2022/12/05 06:31:32;;;;;;;22.10;13.13;;;2.60;99.90;;;;;;5068035;28;20488;-54
2022/12/05 06:34:00;;;;;;;15.17;11.20;;;2.60;99.90;;;;;;5062209;28;20459;-54
2022/12/05 06:36:28;;;;;;;15.00;11.00;;;2.60;99.90;;;;;;5072273;28;20922;-54
2022/12/05 06:38:55;;;;;;;12.30;10.23;;;2.60;99.90;;;;;;5073442;28;20813;-54
2022/12/05 06:41:23;;;;;;;20.40;11.27;;;2.70;99.90;;;;;;5073162;28;21194;-53
2022/12/05 06:43:52;;;;;;;14.93;10.30;;;2.60;99.90;;;;;;5061926;28;20452;-50
2022/12/05 06:46:19;;;;;;;16.10;10.77;;;2.70;99.90;;;;;;5062128;28;20465;-49
2022/12/05 06:48:47;;;;;;;14.10;9.97;;;2.60;99.90;;;;;;5059156;28;20874;-50
2022/12/05 06:51:16;;;;;;;14.43;10.60;;;2.60;99.90;;;;;;5066350;28;20432;-49
2022/12/05 06:53:43;;;;;;;13.93;9.13;;;2.60;99.90;;;;;;5065051;28;20480;-50
2022/12/05 06:56:12;;;;;;;15.50;10.90;;;2.60;99.90;;;;;;5064635;28;20461;-50
2022/12/05 06:58:39;;;;;;;17.80;10.80;;;2.60;99.90;;;;;;5060706;28;20552;-49
2022/12/05 07:03:55;;;;;;;14.83;10.10;;;2.60;99.90;;;;;;5068904;28;20826;-50
2022/12/05 07:06:21;;;;;;;12.67;9.93;;;2.60;99.90;;;;;;5060205;28;20493;-49
2022/12/05 07:08:48;;;;;;;16.37;10.50;;;2.70;99.90;;;;;;5075636;28;20460;-50
2022/12/05 07:11:14;;;;;;;14.70;9.10;;;2.70;99.90;;;;;;5066656;28;20500;-51
2022/12/05 07:13:41;;;;;;;14.50;10.03;;;2.70;99.90;;;;;;5076596;28;20509;-48
2022/12/05 07:16:08;;;;;;;12.00;8.90;;;2.70;99.90;;;;;;5062455;28;20503;-49
2022/12/05 07:18:34;;;;;;;14.10;9.07;;;2.70;99.90;;;;;;5058736;28;20554;-49
2022/12/05 07:21:05;;;;;;;13.57;9.83;;;2.70;99.90;;;;;;5072427;28;20456;-50
2022/12/05 07:23:32;;;;;;;12.20;9.47;;;2.70;99.90;;;;;;5065859;28;20465;-49
2022/12/05 07:25:59;;;;;;;14.50;8.73;;;2.70;99.90;;;;;;5049824;28;20534;-49
2022/12/05 07:28:26;;;;;;;10.80;8.53;;;2.70;99.90;;;;;;5058775;28;20457;-50
2022/12/05 07:31:00;;;;;;;13.37;9.47;;;2.70;99.90;;;;;;5061027;28;20441;-49
2022/12/05 07:33:27;;;;;;;10.73;8.83;;;2.70;99.90;;;;;;5067799;28;20500;-49
2022/12/05 07:35:58;;;;;;;12.33;9.67;;;2.70;99.90;;;;;;5068866;28;20441;-49
2022/12/05 07:38:26;;;;;;;12.60;9.70;;;2.60;99.90;;;;;;5068704;28;20906;-50
2022/12/05 07:40:53;;;;;;;13.30;10.07;;;2.70;99.90;;;;;;5062367;28;20456;-49
2022/12/05 07:43:19;;;;;;;11.83;9.00;;;2.70;99.90;;;;;;5063386;28;20478;-49
2022/12/05 07:45:46;;;;;;;10.23;8.27;;;2.70;99.90;;;;;;5060568;28;20458;-50
2022/12/05 07:48:13;;;;;;;14.27;10.23;;;2.80;99.90;;;;;;5060747;28;20489;-49
2022/12/05 07:50:39;;;;;;;12.10;9.53;;;2.80;99.90;;;;;;5071811;28;20954;-49
2022/12/05 07:53:06;;;;;;;12.93;10.00;;;2.70;99.90;;;;;;5066536;28;20532;-49
2022/12/05 07:55:34;;;;;;;11.97;8.77;;;2.70;99.90;;;;;;5057753;28;21018;-50
2022/12/05 07:58:00;;;;;;;9.93;7.93;;;2.70;99.90;;;;;;5063530;28;20456;-49
2022/12/05 08:00:27;;;;;;;15.10;8.83;;;2.80;99.90;;;;;;5069032;28;20488;-49
2022/12/05 08:02:53;;;;;;;10.80;8.63;;;2.80;99.90;;;;;;5061871;28;20587;-48
2022/12/05 08:05:20;;;;;;;11.33;9.83;;;2.70;99.90;;;;;;5067754;28;20926;-49
2022/12/05 08:07:47;;;;;;;13.30;8.83;;;2.70;99.90;;;;;;5066175;28;20546;-49
2022/12/05 08:10:13;;;;;;;11.93;9.70;;;2.70;99.90;;;;;;5066710;28;20543;-49
2022/12/05 08:12:41;;;;;;;9.20;7.80;;;2.70;99.90;;;;;;5059579;28;20520;-49
2022/12/05 08:15:09;;;;;;;18.47;12.73;;;2.80;99.90;;;;;;5066204;28;20462;-50
2022/12/05 08:17:36;;;;;;;14.60;9.63;;;2.70;99.90;;;;;;5068208;28;20457;-50
2022/12/05 08:20:02;;;;;;;14.30;9.40;;;2.70;99.90;;;;;;5068602;28;20974;-49
2022/12/05 08:22:29;;;;;;;13.97;9.50;;;2.70;99.90;;;;;;5057761;28;20860;-49
2022/12/05 08:24:56;;;;;;;14.57;10.63;;;2.70;99.90;;;;;;5058950;28;20483;-49
2022/12/05 08:27:22;;;;;;;14.17;10.47;;;2.70;99.90;;;;;;5072455;28;20544;-49
2022/12/05 08:29:51;;;;;;;15.13;9.90;;;2.70;99.90;;;;;;5057022;28;20951;-49
2022/12/05 08:32:17;;;;;;;12.20;9.00;;;2.70;99.90;;;;;;5065515;28;20476;-49
2022/12/05 08:34:44;;;;;;;13.20;9.50;;;2.80;99.90;;;;;;5068311;28;20878;-48
2022/12/05 08:37:10;;;;;;;9.53;8.33;;;2.80;99.90;;;;;;5055400;28;20446;-49
2022/12/05 08:39:37;;;;;;;13.73;9.43;;;2.80;99.90;;;;;;5065504;28;20538;-49
2022/12/05 08:42:04;;;;;;;12.90;9.23;;;2.80;99.90;;;;;;5062767;28;21005;-49
2022/12/05 08:44:30;;;;;;;13.30;9.53;;;2.80;99.90;;;;;;5064393;28;20449;-49
2022/12/05 08:46:58;;;;;;;13.40;9.30;;;2.80;99.90;;;;;;5064912;28;20492;-50
2022/12/05 08:49:25;;;;;;;15.73;10.40;;;2.80;99.90;;;;;;5065231;28;26717;-50
2022/12/05 08:51:52;;;;;;;13.40;9.27;;;2.90;99.90;;;;;;5068915;28;21000;-50
2022/12/05 08:54:18;;;;;;;12.93;9.40;;;2.90;99.90;;;;;;5059200;28;20486;-50
2022/12/05 08:56:45;;;;;;;12.83;9.30;;;2.90;99.90;;;;;;5065830;28;21671;-49
2022/12/05 08:59:12;;;;;;;15.07;11.23;;;2.90;99.90;;;;;;5060405;28;20935;-50
2022/12/05 09:01:39;;;;;;;13.23;9.65;;;2.90;99.90;;;;;;5052226;28;20484;-50
2022/12/05 09:04:07;;;;;;;15.60;10.80;;;3.00;99.90;;;;;;5071582;28;20196;-50
2022/12/05 09:06:35;;;;;;;16.47;9.93;;;2.90;99.90;;;;;;5061920;28;20449;-50
2022/12/05 09:09:04;;;;;;;12.13;9.00;;;2.90;99.90;;;;;;5071329;28;20474;-50
2022/12/05 09:11:34;;;;;;;11.17;9.13;;;3.00;99.90;;;;;;5069924;28;20523;-49
2022/12/05 09:14:01;;;;;;;14.53;8.90;;;3.00;99.90;;;;;;5056678;28;20889;-50
2022/12/05 09:16:31;;;;;;;10.60;8.83;;;3.00;99.90;;;;;;5069402;28;20990;-49
2022/12/05 09:18:58;;;;;;;13.30;10.57;;;3.10;99.90;;;;;;5060013;28;20464;-49
2022/12/05 09:21:28;;;;;;;12.77;9.40;;;3.10;99.90;;;;;;5063559;28;20542;-49
2022/12/05 09:23:55;;;;;;;13.00;9.30;;;3.10;99.90;;;;;;5067457;28;20818;-49
2022/12/05 09:26:24;;;;;;;12.67;9.80;;;3.10;99.90;;;;;;5064526;28;20457;-49
2022/12/05 09:28:51;;;;;;;11.27;7.90;;;3.10;99.90;;;;;;5058071;28;20463;-49
2022/12/05 09:31:20;;;;;;;11.10;9.00;;;3.20;99.90;;;;;;5061180;28;20510;-50
2022/12/05 09:33:49;;;;;;;10.20;8.30;;;3.20;99.90;;;;;;5078127;28;20507;-50
2022/12/05 09:36:18;;;;;;;11.73;9.97;;;3.20;99.90;;;;;;5059100;28;20505;-49
2022/12/05 09:38:46;;;;;;;13.13;8.57;;;3.20;99.90;;;;;;5064053;28;20457;-50
2022/12/05 09:44:41;;;;;;;15.90;9.20;;;3.20;99.90;;;;;;4984246;28;20866;-49
2022/12/05 09:47:16;;;;;;;11.77;8.50;;;3.20;99.90;;;;;;4984545;28;20441;-50
2022/12/05 09:49:50;;;;;;;8.87;7.97;;;3.20;99.90;;;;;;5025549;28;20469;-49
2022/12/05 09:52:25;;;;;;;10.50;9.03;;;3.20;99.90;;;;;;5063858;28;20476;-49
2022/12/05 09:54:53;;;;;;;16.53;11.90;;;3.10;99.90;;;;;;5062100;28;20851;-49
2022/12/05 09:57:29;;;;;;;15.23;12.17;;;3.00;99.90;;;;;;5064444;28;20472;-48
2022/12/05 09:59:55;;;;;;;11.30;9.03;;;3.10;99.90;;;;;;5051506;28;20831;-49
2022/12/05 10:02:32;;;;;;;11.13;8.73;;;3.20;99.90;;;;;;5058954;28;20534;-49
2022/12/05 10:05:06;;;;;;;11.50;8.43;;;3.20;99.90;;;;;;5064558;28;20505;-49
2022/12/05 10:07:41;;;;;;;13.20;9.23;;;3.10;99.90;;;;;;5069128;28;20658;-50
2022/12/05 10:10:23;;;;;;;11.00;9.10;;;3.10;99.90;;;;;;5063514;28;20522;-49
2022/12/05 10:13:05;;;;;;;8.93;7.90;;;3.10;99.90;;;;;;5071278;28;21018;-49
2022/12/05 10:15:37;;;;;;;11.00;9.20;;;3.20;99.90;;;;;;5071515;28;20465;-49
2022/12/05 10:18:14;;;;;;;11.13;9.40;;;3.10;99.90;;;;;;5070364;28;20966;-49
2022/12/05 10:20:46;;;;;;;13.53;10.80;;;3.10;99.90;;;;;;5063977;28;20461;-48
2022/12/05 10:23:20;;;;;;;10.40;9.30;;;3.10;99.90;;;;;;5067311;28;20985;-50
2022/12/05 10:25:51;;;;;;;15.03;10.70;;;3.10;99.90;;;;;;5066746;28;20830;-50
2022/12/05 10:28:28;;;;;;;12.63;10.27;;;3.20;99.90;;;;;;5069497;28;20808;-51
2022/12/05 10:30:58;;;;;;;17.03;12.07;;;3.10;99.90;;;;;;5063425;28;20461;-50
2022/12/05 10:33:33;;;;;;;21.77;14.70;;;3.10;99.90;;;;;;5069083;28;20518;-50
2022/12/05 10:36:00;;;;;;;19.00;14.00;;;3.20;99.90;;;;;;5069885;28;20461;-49
2022/12/05 10:38:29;;;;;;;21.20;13.77;;;3.20;99.90;;;;;;5068882;28;20465;-50
2022/12/05 10:41:00;;;;;;;17.57;14.30;;;3.20;99.90;;;;;;5063720;28;20461;-49
2022/12/05 10:43:29;;;;;;;16.33;12.63;;;3.20;99.90;;;;;;5070803;28;20850;-49
2022/12/05 10:45:57;;;;;;;17.27;13.33;;;3.10;99.90;;;;;;5068736;28;20453;-49
2022/12/05 10:48:24;;;;;;;14.80;10.53;;;3.10;99.90;;;;;;5070160;28;20457;-50
2022/12/05 10:50:53;;;;;;;18.53;14.27;;;3.20;99.90;;;;;;5066062;28;20530;-48
2022/12/05 10:53:25;;;;;;;15.03;11.87;;;3.20;99.90;;;;;;5064816;28;20982;-49
2022/12/05 10:55:52;;;;;;;14.80;12.30;;;3.20;99.90;;;;;;5064111;28;20461;-49
2022/12/05 10:58:24;;;;;;;17.83;13.00;;;3.20;99.90;;;;;;5060536;28;20497;-49
2022/12/05 11:00:54;;;;;;;21.00;13.70;;;3.20;99.90;;;;;;5068283;28;20499;-49
2022/12/05 11:03:26;;;;;;;21.90;14.30;;;3.20;99.90;;;;;;5060985;28;20465;-50
2022/12/05 11:05:55;;;;;;;22.63;14.37;;;3.20;99.90;;;;;;5058089;28;20461;-49
2022/12/05 11:08:24;;;;;;;22.60;13.80;;;3.20;99.90;;;;;;5059824;28;20527;-49
2022/12/05 11:11:02;;;;;;;19.30;13.30;;;3.20;99.90;;;;;;5070416;28;20456;-49
2022/12/05 11:13:31;;;;;;;17.20;13.10;;;3.30;99.90;;;;;;5067279;28;20492;-49
2022/12/05 11:15:57;;;;;;;20.23;14.53;;;3.30;99.90;;;;;;5061156;28;20445;-49
2022/12/05 11:18:30;;;;;;;18.63;14.50;;;3.30;99.90;;;;;;5068036;28;20800;-48
2022/12/05 11:21:09;;;;;;;15.83;12.37;;;3.30;99.90;;;;;;5062527;28;20518;-50
2022/12/05 11:23:36;;;;;;;17.17;13.20;;;3.30;99.90;;;;;;5092183;22;20549;-51
2022/12/05 11:26:03;;;;;;;21.47;15.30;;;3.30;99.90;;;;;;5083432;28;20493;-50
2022/12/05 11:28:35;;;;;;;24.83;16.20;;;3.20;99.90;;;;;;5075999;28;20870;-51
2022/12/05 11:31:05;;;;;;;24.37;15.50;;;3.30;99.90;;;;;;5086908;28;20468;-51
2022/12/05 11:33:33;;;;;;;29.23;17.97;;;3.30;99.90;;;;;;5074326;28;20561;-51
2022/12/05 11:36:06;;;;;;;25.67;16.00;;;3.30;99.90;;;;;;5073019;28;20511;-51
2022/12/05 11:38:33;;;;;;;24.90;15.17;;;3.30;99.90;;;;;;5077032;28;20454;-51
2022/12/05 11:41:16;;;;;;;22.07;14.43;;;3.30;99.90;;;;;;5089626;28;20987;-51
2022/12/05 11:44:14;;;;;;;16.97;12.90;;;3.30;99.90;;;;;;5079347;28;20502;-51
2022/12/05 11:46:52;;;;;;;21.33;13.53;;;3.30;99.90;;;;;;5072806;28;20460;-51
2022/12/05 11:49:35;;;;;;;17.40;13.00;;;3.40;99.90;;;;;;5087333;28;20436;-51
2022/12/05 11:52:15;;;;;;;15.70;12.93;;;3.30;99.90;;;;;;5078915;28;20480;-51
2022/12/05 11:54:54;;;;;;;15.70;12.83;;;3.40;99.90;;;;;;5078248;28;20897;-51
2022/12/05 11:57:40;;;;;;;20.10;14.23;;;3.40;99.90;;;;;;5082692;28;20467;-51
2022/12/05 12:00:23;;;;;;;18.80;13.63;;;3.40;99.90;;;;;;5083321;28;20456;-51
2022/12/05 12:03:17;;;;;;;19.47;13.70;;;3.40;99.90;;;;;;5076581;28;20548;-51
2022/12/05 12:05:55;;;;;;;20.33;13.83;;;3.50;99.90;;;;;;5082245;28;20432;-51
2022/12/05 12:08:26;;;;;;;20.13;14.23;;;3.40;99.90;;;;;;5070821;28;20589;-51
2022/12/05 12:11:00;;;;;;;21.87;16.47;;;3.50;99.90;;;;;;5086318;28;20479;-52
2022/12/05 12:13:48;;;;;;;18.40;13.57;;;3.50;99.90;;;;;;5085417;28;21001;-52
2022/12/05 12:16:27;;;;;;;18.43;13.90;;;3.50;99.90;;;;;;5083416;28;20879;-51
2022/12/05 12:19:08;;;;;;;17.60;12.90;;;3.50;99.90;;;;;;5083031;28;20433;-52
2022/12/05 12:21:52;;;;;;;21.37;15.40;;;3.50;99.90;;;;;;5084372;28;20516;-53
2022/12/05 12:24:28;;;;;;;20.60;14.87;;;3.50;99.90;;;;;;5078786;28;20775;-51
2022/12/05 12:27:05;;;;;;;21.93;15.80;;;3.60;99.90;;;;;;5085193;28;20455;-52
2022/12/05 12:29:45;;;;;;;19.77;14.47;;;3.60;99.90;;;;;;5085690;28;20518;-51
2022/12/05 12:32:27;;;;;;;18.77;13.73;;;3.60;99.90;;;;;;5094755;28;20883;-51
2022/12/05 12:35:13;;;;;;;21.13;16.17;;;3.60;99.90;;;;;;5087032;28;20903;-51
2022/12/05 12:37:48;;;;;;;16.37;13.67;;;3.70;99.90;;;;;;5088457;28;20463;-51
2022/12/05 12:40:21;;;;;;;18.10;14.50;;;3.70;99.90;;;;;;5092434;28;20444;-51
2022/12/05 12:43:02;;;;;;;16.10;14.20;;;3.60;99.90;;;;;;5088569;28;20957;-51
2022/12/05 12:45:56;;;;;;;16.77;13.97;;;3.60;99.90;;;;;;5083621;28;20459;-52
2022/12/05 12:48:44;;;;;;;18.20;14.40;;;3.60;99.90;;;;;;5078414;28;20542;-51
2022/12/05 12:51:13;;;;;;;19.63;14.43;;;3.60;99.90;;;;;;5084532;28;20513;-50
2022/12/05 12:54:12;;;;;;;20.00;14.87;;;3.70;99.90;;;;;;5085391;28;20473;-51
2022/12/05 12:56:48;;;;;;;17.90;14.03;;;3.60;99.90;;;;;;5080762;28;20851;-51
2022/12/05 12:59:39;;;;;;;22.03;15.23;;;3.60;99.90;;;;;;5087686;28;20520;-50
2022/12/05 13:02:17;;;;;;;27.93;15.40;;;3.70;99.90;;;;;;5083883;28;21358;-51
2022/12/05 13:04:49;;;;;;;22.93;14.80;;;3.70;99.90;;;;;;5080011;28;20499;-51
2022/12/05 13:07:19;;;;;;;26.67;16.43;;;3.70;99.90;;;;;;5086449;28;21015;-52